Time;durP1;ratioP1;P1;durP2;ratioP2;P2;SDS_P1;SDS_P2;PMS_P1;PMS_P2;Temp;Humidity;BMP_temperature;BMP_pressure;BME280_temperature;BME280_humidity;BME280_pressure;Samples;Min_cycle;Max_cycle;Signal;HPM_P1;HPM_P2
2023/12/18 00:01:13;;;;;;;17.90;8.23;;;3.10;99.90;;;;;;5026982;28;20033;-51
2023/12/18 00:03:39;;;;;;;28.58;9.68;;;3.00;99.90;;;;;;5014304;28;20039;-54
2023/12/18 00:06:06;;;;;;;20.17;8.70;;;3.00;99.90;;;;;;5030964;28;20072;-53
2023/12/18 00:08:32;;;;;;;25.92;9.75;;;3.10;99.90;;;;;;5012955;28;20033;-53
2023/12/18 00:10:58;;;;;;;26.00;8.88;;;3.20;99.90;;;;;;5025683;28;20042;-54
2023/12/18 00:13:24;;;;;;;18.80;9.02;;;3.20;99.90;;;;;;5027097;28;20021;-55
2023/12/18 00:15:49;;;;;;;20.60;7.80;;;3.10;99.90;;;;;;5022082;28;20452;-53
2023/12/18 00:18:15;;;;;;;27.20;9.32;;;3.00;99.90;;;;;;5026406;28;20033;-54
2023/12/18 00:20:41;;;;;;;26.20;9.05;;;3.00;99.90;;;;;;5011818;28;20037;-53
2023/12/18 00:23:06;;;;;;;25.40;8.77;;;3.00;99.90;;;;;;5031168;28;20033;-52
2023/12/18 00:25:32;;;;;;;23.77;9.95;;;3.00;99.90;;;;;;5032247;28;20030;-54
2023/12/18 00:27:57;;;;;;;25.52;9.55;;;3.10;99.90;;;;;;5027181;28;20041;-53
2023/12/18 00:30:23;;;;;;;31.13;10.95;;;3.00;99.90;;;;;;5029310;28;20375;-55
2023/12/18 00:32:48;;;;;;;26.90;9.82;;;3.10;99.90;;;;;;5028939;28;20030;-55
2023/12/18 00:35:14;;;;;;;23.02;9.00;;;3.10;99.90;;;;;;5025182;28;20029;-52
2023/12/18 00:37:40;;;;;;;28.38;9.18;;;3.00;99.90;;;;;;5026524;28;20045;-53
2023/12/18 00:40:06;;;;;;;30.88;9.80;;;3.00;99.90;;;;;;5025227;28;20036;-54
2023/12/18 00:42:32;;;;;;;18.60;9.75;;;2.90;99.90;;;;;;5029044;28;20033;-56
2023/12/18 00:44:57;;;;;;;28.67;10.52;;;3.00;99.90;;;;;;5027478;28;20079;-51
2023/12/18 00:47:23;;;;;;;25.83;9.18;;;3.00;99.90;;;;;;5009878;28;20060;-51
2023/12/18 00:49:49;;;;;;;21.38;9.02;;;3.00;99.90;;;;;;5027934;28;20040;-51
2023/12/18 00:52:15;;;;;;;26.02;9.43;;;3.00;99.90;;;;;;5029047;28;20021;-52
2023/12/18 00:54:40;;;;;;;22.17;8.82;;;2.90;99.90;;;;;;5026551;28;20053;-54
2023/12/18 00:57:06;;;;;;;32.10;9.32;;;2.90;99.90;;;;;;5023797;28;20488;-56
2023/12/18 00:59:31;;;;;;;34.30;9.45;;;2.80;99.90;;;;;;5026382;28;20028;-53
2023/12/18 01:01:57;;;;;;;25.90;10.55;;;2.80;99.90;;;;;;5027488;28;20025;-53
2023/12/18 01:04:23;;;;;;;25.00;9.65;;;2.80;99.90;;;;;;5026725;28;20104;-52
2023/12/18 01:06:48;;;;;;;21.13;9.38;;;2.80;99.90;;;;;;5028156;28;20044;-53
2023/12/18 01:09:14;;;;;;;28.50;9.57;;;2.80;99.90;;;;;;5026254;28;20041;-54
2023/12/18 01:11:40;;;;;;;24.85;9.48;;;2.70;99.90;;;;;;5008667;28;20036;-53
2023/12/18 01:14:05;;;;;;;29.95;10.63;;;2.70;99.90;;;;;;5029597;28;20080;-54
2023/12/18 01:16:31;;;;;;;23.10;8.48;;;2.70;99.90;;;;;;5026564;28;20068;-54
2023/12/18 01:18:56;;;;;;;24.42;10.35;;;2.70;99.90;;;;;;5022668;28;20029;-55
2023/12/18 01:21:22;;;;;;;23.58;9.65;;;2.70;99.90;;;;;;5025760;28;20033;-55
2023/12/18 01:23:48;;;;;;;26.77;9.95;;;2.80;99.90;;;;;;5028664;28;20029;-53
2023/12/18 01:26:13;;;;;;;30.48;9.38;;;2.80;99.90;;;;;;5026122;28;20105;-53
2023/12/18 01:28:40;;;;;;;30.20;11.10;;;2.80;99.90;;;;;;5025280;28;20025;-54
2023/12/18 01:31:07;;;;;;;27.58;9.98;;;2.70;99.90;;;;;;5024185;28;20044;-52
2023/12/18 01:33:34;;;;;;;28.10;9.85;;;2.70;99.90;;;;;;5027031;28;20517;-55
2023/12/18 01:35:59;;;;;;;31.42;9.63;;;2.60;99.90;;;;;;5026040;28;20101;-55
2023/12/18 01:38:25;;;;;;;33.08;11.43;;;2.70;99.90;;;;;;5030345;28;20112;-53
2023/12/18 01:40:51;;;;;;;29.90;10.18;;;2.70;99.90;;;;;;5021659;28;20033;-54
2023/12/18 01:43:27;;;;;;;35.08;11.68;;;2.70;99.90;;;;;;5010515;28;20083;-55
2023/12/18 01:46:00;;;;;;;27.15;10.15;;;2.70;99.90;;;;;;5010963;28;20033;-54
2023/12/18 01:48:26;;;;;;;31.35;10.30;;;2.70;99.90;;;;;;5029838;28;20387;-54
2023/12/18 01:50:56;;;;;;;34.22;11.90;;;2.60;99.90;;;;;;5029661;28;20511;-55
2023/12/18 01:53:44;;;;;;;25.38;10.68;;;2.60;99.90;;;;;;5028463;28;20017;-55
2023/12/18 01:56:13;;;;;;;19.60;9.43;;;2.70;99.90;;;;;;5030295;28;20022;-53
2023/12/18 01:58:41;;;;;;;30.17;10.48;;;2.60;99.90;;;;;;5025948;28;20087;-55
2023/12/18 02:01:08;;;;;;;24.88;10.40;;;2.60;99.90;;;;;;5031059;28;20056;-53
2023/12/18 02:03:35;;;;;;;29.27;11.25;;;2.60;99.90;;;;;;5033189;28;20029;-56
2023/12/18 02:06:03;;;;;;;24.88;10.32;;;2.60;99.90;;;;;;5030446;28;20518;-52
2023/12/18 02:08:32;;;;;;;30.92;11.50;;;2.60;99.90;;;;;;5031233;28;20495;-54
2023/12/18 02:10:59;;;;;;;24.90;10.52;;;2.60;99.90;;;;;;5028763;28;20044;-55
2023/12/18 02:13:25;;;;;;;30.98;11.38;;;2.60;99.90;;;;;;5033781;28;20024;-57
2023/12/18 02:15:51;;;;;;;34.47;11.43;;;2.60;99.90;;;;;;5034221;28;20714;-54
2023/12/18 02:18:17;;;;;;;34.42;10.30;;;2.60;99.90;;;;;;5033395;28;20041;-53
2023/12/18 02:20:44;;;;;;;34.85;10.98;;;2.50;99.90;;;;;;5037545;28;20032;-52
2023/12/18 02:23:10;;;;;;;33.83;12.10;;;2.50;99.90;;;;;;5032627;28;20061;-54
2023/12/18 02:25:36;;;;;;;36.38;10.18;;;2.50;99.90;;;;;;5010549;28;20038;-53
2023/12/18 02:28:03;;;;;;;23.95;9.50;;;2.50;99.90;;;;;;5031520;28;20059;-56
2023/12/18 02:30:28;;;;;;;30.98;10.75;;;2.60;99.90;;;;;;5028295;28;20672;-54
2023/12/18 02:32:54;;;;;;;24.35;10.43;;;2.50;99.90;;;;;;5029667;28;20057;-56
2023/12/18 02:35:20;;;;;;;25.40;9.65;;;2.50;99.90;;;;;;5028030;28;20554;-52
2023/12/18 02:37:45;;;;;;;19.70;9.60;;;2.50;99.90;;;;;;5031486;28;20053;-55
2023/12/18 02:40:11;;;;;;;23.95;10.13;;;2.40;99.90;;;;;;5027576;28;20040;-55
2023/12/18 02:42:37;;;;;;;28.20;11.38;;;2.30;99.90;;;;;;5032368;28;20025;-55
2023/12/18 02:45:03;;;;;;;25.00;9.27;;;2.30;99.90;;;;;;5031697;28;20021;-54
2023/12/18 02:47:28;;;;;;;31.00;10.35;;;2.20;99.90;;;;;;5029568;28;20419;-52
2023/12/18 02:49:54;;;;;;;25.40;10.02;;;2.20;99.90;;;;;;5033845;28;20125;-53
2023/12/18 02:52:19;;;;;;;19.02;9.45;;;2.20;99.90;;;;;;5027118;28;20108;-55
2023/12/18 02:54:45;;;;;;;27.48;9.65;;;2.20;99.90;;;;;;5030489;28;20033;-54
2023/12/18 02:57:11;;;;;;;28.63;11.18;;;2.30;99.90;;;;;;5031549;28;20038;-52
2023/12/18 02:59:36;;;;;;;30.95;11.48;;;2.30;99.90;;;;;;5031403;28;20040;-53
2023/12/18 03:02:02;;;;;;;25.77;11.05;;;2.20;99.90;;;;;;5031477;28;20151;-54
2023/12/18 03:04:28;;;;;;;30.70;10.80;;;2.20;99.90;;;;;;5033015;28;20084;-51
2023/12/18 03:06:53;;;;;;;29.25;10.70;;;2.20;99.90;;;;;;5029955;28;20106;-56
2023/12/18 03:09:19;;;;;;;31.90;11.50;;;2.10;99.90;;;;;;5031101;28;20022;-52
2023/12/18 03:11:45;;;;;;;32.00;11.40;;;2.20;99.90;;;;;;5028383;28;20034;-54
2023/12/18 03:14:11;;;;;;;33.60;11.75;;;2.20;99.90;;;;;;5018854;28;20507;-53
2023/12/18 03:16:40;;;;;;;25.95;10.98;;;2.20;99.90;;;;;;5011867;28;20014;-53
2023/12/18 03:19:05;;;;;;;29.17;10.43;;;2.10;99.90;;;;;;5030305;28;20030;-53
2023/12/18 03:21:31;;;;;;;31.30;11.25;;;2.10;99.90;;;;;;5031973;28;20039;-54
2023/12/18 03:23:57;;;;;;;24.25;10.40;;;2.10;99.90;;;;;;5010265;28;20120;-53
2023/12/18 03:26:23;;;;;;;29.42;10.90;;;2.00;99.90;;;;;;5012344;28;20554;-53
2023/12/18 03:28:49;;;;;;;31.90;10.40;;;2.00;99.90;;;;;;5029160;28;20033;-56
2023/12/18 03:31:15;;;;;;;25.80;10.52;;;2.00;99.90;;;;;;5030568;28;20521;-54
2023/12/18 03:33:41;;;;;;;24.60;10.40;;;1.90;99.90;;;;;;5030362;28;20034;-53
2023/12/18 03:36:07;;;;;;;35.58;10.55;;;1.90;99.90;;;;;;5012012;28;20093;-54
2023/12/18 03:38:33;;;;;;;23.35;9.98;;;2.00;99.90;;;;;;5027599;28;20108;-52
2023/12/18 03:40:59;;;;;;;25.05;9.88;;;1.90;99.90;;;;;;5032649;28;20562;-54
2023/12/18 03:43:25;;;;;;;29.70;11.15;;;1.90;99.90;;;;;;5013349;28;20153;-56
2023/12/18 03:45:51;;;;;;;34.15;10.35;;;1.90;99.90;;;;;;5030516;28;20538;-54
2023/12/18 03:48:18;;;;;;;26.95;10.05;;;1.90;99.90;;;;;;5033503;28;20029;-53
2023/12/18 03:50:44;;;;;;;24.35;9.82;;;1.80;99.90;;;;;;5035296;28;20017;-54
2023/12/18 03:53:10;;;;;;;24.48;9.07;;;1.70;99.90;;;;;;5026763;28;20029;-53
2023/12/18 03:55:36;;;;;;;27.02;10.05;;;1.60;99.90;;;;;;5030424;28;20152;-52
2023/12/18 03:58:01;;;;;;;30.33;9.73;;;1.50;99.90;;;;;;5029062;28;20049;-55
2023/12/18 04:00:27;;;;;;;19.95;8.77;;;1.50;99.90;;;;;;5028671;28;20071;-52
2023/12/18 04:02:52;;;;;;;25.10;10.18;;;1.50;99.90;;;;;;5027316;28;20480;-52
2023/12/18 04:05:18;;;;;;;28.92;11.00;;;1.50;99.90;;;;;;5027358;28;20160;-55
2023/12/18 04:07:44;;;;;;;25.30;10.57;;;1.50;99.90;;;;;;5019936;28;20115;-54
2023/12/18 04:10:10;;;;;;;27.15;9.77;;;1.60;99.90;;;;;;5026770;28;20031;-52
2023/12/18 04:12:36;;;;;;;25.80;10.50;;;1.60;99.90;;;;;;5029261;28;20107;-55
2023/12/18 04:15:02;;;;;;;27.15;9.98;;;1.50;99.90;;;;;;5028221;28;20396;-54
2023/12/18 04:17:27;;;;;;;26.33;10.50;;;1.50;99.90;;;;;;5029707;28;20025;-52
2023/12/18 04:19:53;;;;;;;31.42;11.18;;;1.50;99.90;;;;;;5026969;28;20060;-54
2023/12/18 04:22:18;;;;;;;27.70;11.60;;;1.50;99.90;;;;;;5027147;28;20152;-55
2023/12/18 04:24:44;;;;;;;24.58;10.00;;;1.50;99.90;;;;;;5028140;28;20032;-53
2023/12/18 04:27:10;;;;;;;27.02;10.32;;;1.40;99.90;;;;;;5029177;28;20083;-52
2023/12/18 04:29:37;;;;;;;32.25;9.82;;;1.40;99.90;;;;;;5028708;28;20025;-54
2023/12/18 04:32:04;;;;;;;22.92;10.23;;;1.40;99.90;;;;;;5025648;28;20033;-53
2023/12/18 04:34:29;;;;;;;28.45;11.07;;;1.40;99.90;;;;;;5028005;28;20036;-53
2023/12/18 04:36:55;;;;;;;27.77;9.95;;;1.40;99.90;;;;;;5023216;28;20033;-54
2023/12/18 04:39:21;;;;;;;26.23;9.50;;;1.40;99.90;;;;;;5029430;28;20476;-54
2023/12/18 04:41:46;;;;;;;30.25;9.38;;;1.30;99.90;;;;;;5027052;28;20448;-55
2023/12/18 04:44:12;;;;;;;26.70;8.82;;;1.30;99.90;;;;;;5010012;28;20058;-49
2023/12/18 04:46:38;;;;;;;30.40;10.73;;;1.30;99.90;;;;;;5028121;28;20048;-55
2023/12/18 04:49:04;;;;;;;28.05;9.98;;;1.20;99.90;;;;;;5025994;28;20106;-52
2023/12/18 04:51:30;;;;;;;28.50;10.35;;;1.10;99.90;;;;;;5029188;28;20071;-54
2023/12/18 04:53:57;;;;;;;23.58;9.23;;;1.00;99.90;;;;;;5026449;28;20041;-55
2023/12/18 04:56:22;;;;;;;34.25;9.40;;;0.90;99.90;;;;;;5008889;28;20514;-54
2023/12/18 04:58:48;;;;;;;27.35;9.48;;;0.90;99.90;;;;;;5028413;28;20108;-55
2023/12/18 05:01:14;;;;;;;28.42;9.40;;;0.90;99.90;;;;;;5026275;28;20092;-52
2023/12/18 05:03:39;;;;;;;28.90;9.98;;;0.90;99.90;;;;;;5026156;28;20025;-55
2023/12/18 05:06:18;;;;;;;23.27;8.90;;;1.00;99.90;;;;;;5025308;28;20084;-55
2023/12/18 05:08:43;;;;;;;29.92;9.52;;;0.90;99.90;;;;;;5028679;28;20025;-55
2023/12/18 05:11:09;;;;;;;34.67;10.63;;;1.00;99.90;;;;;;5024989;28;20032;-55
2023/12/18 05:13:34;;;;;;;47.00;14.35;;;1.00;99.90;;;;;;5029847;28;20399;-51
2023/12/18 05:16:00;;;;;;;39.95;17.50;;;1.00;99.90;;;;;;5029917;28;20511;-53
2023/12/18 05:18:26;;;;;;;30.88;14.18;;;1.00;99.90;;;;;;5027617;28;20083;-53
2023/12/18 05:20:53;;;;;;;27.90;10.80;;;1.00;99.90;;;;;;5028247;28;20032;-56
2023/12/18 05:23:19;;;;;;;16.23;7.75;;;0.90;99.90;;;;;;5025604;28;20502;-54
2023/12/18 05:25:44;;;;;;;15.93;7.18;;;0.80;99.90;;;;;;5029362;28;20033;-56
2023/12/18 05:28:10;;;;;;;27.80;8.00;;;0.70;99.90;;;;;;5022650;28;20064;-52
2023/12/18 05:30:36;;;;;;;22.73;7.03;;;0.60;99.90;;;;;;5026559;28;20402;-52
2023/12/18 05:33:02;;;;;;;19.25;6.57;;;0.50;99.90;;;;;;5056245;22;20591;-58
2023/12/18 05:35:28;;;;;;;22.45;8.93;;;0.30;99.90;;;;;;5043572;28;20029;-57
2023/12/18 05:37:54;;;;;;;27.75;9.82;;;0.30;99.90;;;;;;5044098;28;20478;-57
2023/12/18 05:40:19;;;;;;;20.83;9.02;;;0.20;99.90;;;;;;5035846;28;20028;-56
2023/12/18 05:42:45;;;;;;;18.77;9.98;;;0.20;99.90;;;;;;5030799;28;20473;-55
2023/12/18 05:45:10;;;;;;;26.65;9.73;;;0.30;99.90;;;;;;5014800;28;20112;-58
2023/12/18 05:47:36;;;;;;;22.05;9.18;;;0.20;99.90;;;;;;5022279;28;20910;-54
2023/12/18 05:50:02;;;;;;;27.33;9.07;;;0.20;99.90;;;;;;5025674;28;20049;-57
2023/12/18 05:52:27;;;;;;;19.95;9.07;;;0.20;99.90;;;;;;5024578;28;20038;-58
2023/12/18 05:54:53;;;;;;;19.20;8.32;;;0.10;99.90;;;;;;5030254;28;20044;-58
2023/12/18 05:57:19;;;;;;;19.75;8.73;;;0.10;99.90;;;;;;5023926;28;20029;-58
2023/12/18 05:59:44;;;;;;;15.45;6.75;;;0.20;99.90;;;;;;5024093;28;20037;-58
2023/12/18 06:02:10;;;;;;;17.02;7.45;;;0.10;99.90;;;;;;5027366;28;20033;-58
2023/12/18 06:04:38;;;;;;;21.30;7.88;;;0.10;99.90;;;;;;5026993;28;20029;-57
2023/12/18 06:07:04;;;;;;;15.13;5.55;;;0.20;99.90;;;;;;5029037;28;20116;-59
2023/12/18 06:09:30;;;;;;;12.63;5.80;;;0.10;99.90;;;;;;5024517;28;20525;-59
2023/12/18 06:11:55;;;;;;;27.30;7.85;;;0.10;99.90;;;;;;5028590;28;20017;-57
2023/12/18 06:14:21;;;;;;;19.02;5.00;;;0.00;99.90;;;;;;5018581;28;20021;-59
2023/12/18 06:16:46;;;;;;;20.60;5.18;;;-0.10;99.90;;;;;;5026444;28;20045;-57
2023/12/18 06:19:12;;;;;;;9.63;4.80;;;-0.20;99.90;;;;;;5029001;28;20034;-58
2023/12/18 06:21:41;;;;;;;13.35;4.95;;;-0.20;99.90;;;;;;5029787;28;20033;-54
2023/12/18 06:24:07;;;;;;;13.90;5.78;;;-0.30;99.90;;;;;;5026769;28;20088;-59
2023/12/18 06:26:33;;;;;;;24.20;8.18;;;-0.20;99.90;;;;;;5027183;28;20062;-58
2023/12/18 06:28:58;;;;;;;23.55;7.75;;;-0.10;99.90;;;;;;5024051;28;20056;-60
2023/12/18 06:31:24;;;;;;;29.58;9.23;;;-0.10;99.90;;;;;;5026390;28;20521;-58
2023/12/18 06:33:49;;;;;;;25.00;8.55;;;-0.10;99.90;;;;;;5026894;28;20037;-58
2023/12/18 06:36:19;;;;;;;18.60;8.65;;;0.00;99.90;;;;;;5029353;28;20030;-59
2023/12/18 06:38:45;;;;;;;19.75;10.18;;;0.00;99.90;;;;;;5022230;28;20038;-57
2023/12/18 06:41:11;;;;;;;31.52;9.95;;;0.00;99.90;;;;;;5021383;28;20025;-58
2023/12/18 06:43:37;;;;;;;27.35;9.93;;;0.00;99.90;;;;;;5025497;28;20037;-58
2023/12/18 06:46:03;;;;;;;20.35;8.35;;;0.00;99.90;;;;;;5024937;28;20053;-57
2023/12/18 06:48:29;;;;;;;27.08;9.40;;;0.10;99.90;;;;;;5024697;28;20033;-58
2023/12/18 06:50:54;;;;;;;16.60;8.60;;;0.00;99.90;;;;;;5023539;28;20022;-58
2023/12/18 06:53:20;;;;;;;18.80;8.52;;;-0.10;99.90;;;;;;5025231;28;20032;-58
2023/12/18 06:55:46;;;;;;;26.98;11.25;;;-0.10;99.90;;;;;;5020768;28;20088;-57
2023/12/18 06:58:11;;;;;;;38.40;14.77;;;-0.20;99.90;;;;;;5020070;28;20072;-58
2023/12/18 07:00:37;;;;;;;31.95;12.65;;;-0.20;99.90;;;;;;5021507;28;20026;-57
2023/12/18 07:03:03;;;;;;;61.22;17.10;;;-0.30;99.90;;;;;;5022050;28;20598;-58
2023/12/18 07:05:29;;;;;;;100.88;30.35;;;-0.40;99.90;;;;;;5028247;28;20120;-58
2023/12/18 07:07:55;;;;;;;101.57;28.60;;;-0.40;99.90;;;;;;5010223;28;20129;-58
2023/12/18 07:10:21;;;;;;;63.45;19.30;;;-0.50;99.90;;;;;;5028426;28;20175;-57
2023/12/18 07:12:47;;;;;;;81.05;21.67;;;-0.50;99.90;;;;;;5029441;28;20116;-57
2023/12/18 07:15:13;;;;;;;62.72;18.35;;;-0.40;99.90;;;;;;5022162;28;20033;-57
2023/12/18 07:17:38;;;;;;;62.28;19.05;;;-0.40;99.90;;;;;;5019857;28;20052;-59
2023/12/18 07:20:06;;;;;;;74.53;21.10;;;-0.40;99.90;;;;;;5026262;28;20068;-58
2023/12/18 07:22:33;;;;;;;89.28;20.38;;;-0.40;99.90;;;;;;5025207;28;20499;-57
2023/12/18 07:24:59;;;;;;;114.22;27.27;;;-0.40;99.90;;;;;;5022642;28;20025;-57
2023/12/18 07:27:25;;;;;;;117.22;30.80;;;-0.40;99.90;;;;;;5028130;28;20041;-57
2023/12/18 07:29:51;;;;;;;58.75;16.65;;;-0.40;99.90;;;;;;5030693;28;20025;-57
2023/12/18 07:32:16;;;;;;;38.03;13.40;;;-0.40;99.90;;;;;;5023072;28;20032;-58
2023/12/18 07:34:42;;;;;;;29.52;13.63;;;-0.40;99.90;;;;;;5022413;28;20022;-57
2023/12/18 07:37:08;;;;;;;29.13;10.52;;;-0.30;99.90;;;;;;5020219;28;20026;-58
2023/12/18 07:39:34;;;;;;;32.85;12.32;;;-0.30;99.90;;;;;;5026572;28;20104;-57
2023/12/18 07:42:01;;;;;;;36.35;13.70;;;-0.20;99.90;;;;;;5023135;28;20028;-58
2023/12/18 07:44:27;;;;;;;38.42;14.98;;;-0.10;99.90;;;;;;5027554;28;20022;-59
2023/12/18 07:46:52;;;;;;;40.85;16.33;;;0.00;99.90;;;;;;5018958;28;20394;-56
2023/12/18 07:49:18;;;;;;;47.85;15.38;;;0.10;99.90;;;;;;5024663;28;20071;-59
2023/12/18 07:51:44;;;;;;;23.23;10.63;;;0.10;99.90;;;;;;5027816;28;20017;-57
2023/12/18 07:54:10;;;;;;;22.40;9.45;;;0.20;99.90;;;;;;5022458;28;20060;-59
2023/12/18 07:56:35;;;;;;;32.10;9.23;;;0.10;99.90;;;;;;5025356;28;20048;-57
2023/12/18 07:59:03;;;;;;;31.40;10.23;;;0.20;99.90;;;;;;5022750;28;20452;-57
2023/12/18 08:01:28;;;;;;;30.90;11.80;;;0.20;99.90;;;;;;5012928;28;20583;-58
2023/12/18 08:03:54;;;;;;;38.90;15.20;;;0.30;99.90;;;;;;5020887;28;20084;-58
2023/12/18 08:06:20;;;;;;;31.85;14.70;;;0.30;99.90;;;;;;5023795;28;20657;-57
2023/12/18 08:08:45;;;;;;;34.17;14.93;;;0.30;99.90;;;;;;5024041;28;20475;-57
2023/12/18 08:11:11;;;;;;;49.28;19.92;;;0.30;99.90;;;;;;5017657;28;20422;-57
2023/12/18 08:13:40;;;;;;;54.63;22.52;;;0.40;99.90;;;;;;5021203;28;20084;-58
2023/12/18 08:16:07;;;;;;;75.97;24.88;;;0.40;99.90;;;;;;5018911;28;20419;-59
2023/12/18 08:18:33;;;;;;;73.20;24.80;;;0.40;99.90;;;;;;5023164;28;20083;-58
2023/12/18 08:20:59;;;;;;;45.95;18.23;;;0.40;99.90;;;;;;5019763;28;20435;-59
2023/12/18 08:23:26;;;;;;;39.85;14.90;;;0.40;99.90;;;;;;5028423;28;20037;-58
2023/12/18 08:25:52;;;;;;;38.45;15.65;;;0.40;99.90;;;;;;5025057;28;20037;-56
2023/12/18 08:28:18;;;;;;;28.60;13.63;;;0.40;99.90;;;;;;5026628;28;20503;-58
2023/12/18 08:30:44;;;;;;;34.20;16.40;;;0.50;99.90;;;;;;5022898;28;20017;-59
2023/12/18 08:33:10;;;;;;;40.22;17.67;;;0.40;99.90;;;;;;5023966;28;20035;-59
2023/12/18 08:35:36;;;;;;;38.65;15.63;;;0.30;99.90;;;;;;5019379;28;20021;-59
2023/12/18 08:38:01;;;;;;;30.45;13.45;;;0.30;99.90;;;;;;5028424;28;20923;-57
2023/12/18 08:40:29;;;;;;;39.00;17.35;;;0.20;99.90;;;;;;5024705;28;20664;-59
2023/12/18 08:42:55;;;;;;;24.15;11.43;;;0.20;99.90;;;;;;5025641;28;20795;-55
2023/12/18 08:45:20;;;;;;;42.00;16.27;;;0.30;99.90;;;;;;5025814;28;20032;-57
2023/12/18 08:47:46;;;;;;;40.05;17.25;;;0.20;99.90;;;;;;5023408;28;20833;-58
2023/12/18 08:50:12;;;;;;;39.33;17.88;;;0.20;99.90;;;;;;5027719;28;20030;-58
2023/12/18 08:52:38;;;;;;;48.67;17.67;;;0.20;99.90;;;;;;5029645;28;20080;-59
2023/12/18 08:55:05;;;;;;;47.58;15.55;;;0.30;99.90;;;;;;5027167;28;20436;-60
2023/12/18 08:57:31;;;;;;;33.58;13.77;;;0.30;99.90;;;;;;5022473;28;20046;-59
2023/12/18 08:59:56;;;;;;;27.85;12.23;;;0.30;99.90;;;;;;5027876;28;20048;-59
2023/12/18 09:02:22;;;;;;;39.00;16.50;;;0.30;99.90;;;;;;5008726;28;20601;-58
2023/12/18 09:04:48;;;;;;;26.92;11.68;;;0.30;99.90;;;;;;5026212;28;20091;-58
2023/12/18 09:07:13;;;;;;;22.83;10.43;;;0.40;99.90;;;;;;5029466;28;20037;-58
2023/12/18 09:09:39;;;;;;;22.52;9.70;;;0.40;99.90;;;;;;5020233;28;20059;-59
2023/12/18 09:12:08;;;;;;;22.40;10.45;;;0.40;99.90;;;;;;5018128;28;20036;-60
2023/12/18 09:14:35;;;;;;;17.33;9.18;;;0.50;99.90;;;;;;5024829;28;20040;-56
2023/12/18 09:17:01;;;;;;;13.20;7.05;;;0.50;99.90;;;;;;5018917;28;20091;-58
2023/12/18 09:19:26;;;;;;;13.20;7.15;;;0.50;99.90;;;;;;5020931;28;20022;-59
2023/12/18 09:21:52;;;;;;;14.60;5.63;;;0.50;99.90;;;;;;5020869;28;20030;-58
2023/12/18 09:24:18;;;;;;;13.10;6.55;;;0.40;99.90;;;;;;5020572;28;20088;-58
2023/12/18 09:26:44;;;;;;;20.67;9.27;;;0.40;99.90;;;;;;5020417;28;20049;-58
2023/12/18 09:29:09;;;;;;;12.85;7.00;;;0.40;99.90;;;;;;5020606;28;20044;-58
2023/12/18 09:31:35;;;;;;;16.85;7.93;;;0.40;99.90;;;;;;5005301;28;20026;-58
2023/12/18 09:34:01;;;;;;;15.38;8.52;;;0.50;99.90;;;;;;5022827;28;20022;-57
2023/12/18 09:36:27;;;;;;;11.10;6.72;;;0.50;99.90;;;;;;5024026;28;20388;-59
2023/12/18 09:38:53;;;;;;;11.35;6.13;;;0.60;99.90;;;;;;5029169;28;20026;-59
2023/12/18 09:41:26;;;;;;;11.38;5.40;;;0.70;99.90;;;;;;5025054;28;20614;-58
2023/12/18 09:43:53;;;;;;;10.70;5.68;;;0.70;99.90;;;;;;5027636;28;20052;-58
2023/12/18 09:46:22;;;;;;;11.02;5.85;;;0.90;99.90;;;;;;5025201;28;20764;-57
2023/12/18 09:48:49;;;;;;;20.60;7.35;;;1.00;99.90;;;;;;5023835;28;20025;-57
2023/12/18 09:51:19;;;;;;;17.73;6.72;;;1.10;99.90;;;;;;5026980;28;20482;-58
2023/12/18 09:53:46;;;;;;;16.92;6.80;;;1.10;99.90;;;;;;5020655;28;20103;-58
2023/12/18 09:56:12;;;;;;;16.52;8.00;;;1.20;99.90;;;;;;5021526;28;20037;-58
2023/12/18 09:58:40;;;;;;;13.30;4.88;;;1.30;99.90;;;;;;5025803;28;20032;-56
2023/12/18 10:01:05;;;;;;;7.35;3.83;;;1.40;99.90;;;;;;5021771;28;20018;-57
2023/12/18 10:03:31;;;;;;;6.85;3.72;;;1.40;99.90;;;;;;5019454;28;20478;-57
2023/12/18 10:05:57;;;;;;;6.32;3.90;;;1.40;99.90;;;;;;5028775;28;20740;-58
2023/12/18 10:08:22;;;;;;;6.05;3.70;;;1.30;99.90;;;;;;5024035;28;20108;-59
2023/12/18 10:10:48;;;;;;;6.15;4.05;;;1.30;99.90;;;;;;5023586;28;20506;-58
2023/12/18 10:13:14;;;;;;;9.82;5.15;;;1.40;99.90;;;;;;5021963;28;20021;-57
2023/12/18 10:15:43;;;;;;;8.52;5.22;;;1.40;99.90;;;;;;5029022;28;20028;-57
2023/12/18 10:18:10;;;;;;;9.88;5.35;;;1.40;99.90;;;;;;5027695;28;20057;-58
2023/12/18 10:20:36;;;;;;;12.20;5.22;;;1.50;99.90;;;;;;5018048;28;20025;-57
2023/12/18 10:23:05;;;;;;;15.65;7.07;;;1.60;99.90;;;;;;5023721;28;20034;-57
2023/12/18 10:25:34;;;;;;;12.77;7.00;;;1.70;99.90;;;;;;5020591;28;20033;-58
2023/12/18 10:27:59;;;;;;;14.13;6.65;;;1.80;99.90;;;;;;5019861;28;20108;-58
2023/12/18 10:30:27;;;;;;;13.77;6.13;;;1.80;99.90;;;;;;5021682;28;20100;-58
2023/12/18 10:32:53;;;;;;;12.82;6.13;;;1.90;99.90;;;;;;5042886;28;20034;-59
2023/12/18 10:35:19;;;;;;;8.43;5.07;;;2.00;99.90;;;;;;5028909;28;20060;-58
2023/12/18 10:37:52;;;;;;;14.07;6.43;;;2.10;99.90;;;;;;5024927;28;20497;-56
2023/12/18 10:40:19;;;;;;;10.65;4.95;;;2.10;99.90;;;;;;5031084;28;20503;-58
2023/12/18 10:42:51;;;;;;;10.23;4.93;;;2.20;99.90;;;;;;5024350;28;20029;-58
2023/12/18 10:45:19;;;;;;;9.95;5.15;;;2.30;99.90;;;;;;5025803;28;20032;-59
2023/12/18 10:47:47;;;;;;;11.52;5.47;;;2.30;99.90;;;;;;5028730;28;20029;-59
2023/12/18 10:50:16;;;;;;;8.98;5.35;;;2.40;99.90;;;;;;5024937;28;20456;-59
2023/12/18 10:52:46;;;;;;;11.45;6.13;;;2.40;99.90;;;;;;5026332;28;20036;-59
2023/12/18 10:55:15;;;;;;;12.82;6.40;;;2.40;99.90;;;;;;5028346;28;20048;-60
2023/12/18 10:57:43;;;;;;;12.48;7.30;;;2.50;99.90;;;;;;5031691;28;20060;-58
2023/12/18 11:00:10;;;;;;;21.65;9.38;;;2.50;99.90;;;;;;5024324;28;20065;-58
2023/12/18 11:02:37;;;;;;;20.95;8.68;;;2.60;99.90;;;;;;5010683;28;20041;-57
2023/12/18 11:05:06;;;;;;;20.55;9.93;;;2.70;99.90;;;;;;5025170;28;20029;-59
2023/12/18 11:07:32;;;;;;;16.42;8.93;;;2.80;99.90;;;;;;5025352;28;20037;-59
2023/12/18 11:09:58;;;;;;;21.80;9.05;;;2.90;99.90;;;;;;5031554;28;20108;-58
2023/12/18 11:12:26;;;;;;;19.27;9.35;;;3.00;99.90;;;;;;5023342;28;20029;-57
2023/12/18 11:15:24;;;;;;;19.27;9.55;;;3.00;99.90;;;;;;5023434;28;20051;-58
2023/12/18 11:18:02;;;;;;;18.63;9.30;;;3.00;99.90;;;;;;5026478;28;20034;-59
2023/12/18 11:20:35;;;;;;;18.02;8.45;;;3.00;99.90;;;;;;5026198;28;20045;-58
2023/12/18 11:23:01;;;;;;;22.30;8.48;;;3.10;99.90;;;;;;5029419;28;20025;-57
2023/12/18 11:25:47;;;;;;;19.25;8.95;;;3.20;99.90;;;;;;5026845;28;20163;-58
2023/12/18 11:28:13;;;;;;;19.23;9.55;;;3.30;99.90;;;;;;5026203;28;20552;-58
2023/12/18 11:30:43;;;;;;;16.90;8.07;;;3.40;99.90;;;;;;5044813;28;20033;-58
2023/12/18 11:33:10;;;;;;;17.33;7.25;;;3.40;99.90;;;;;;5027573;28;20064;-58
2023/12/18 11:35:38;;;;;;;17.50;8.38;;;3.40;99.90;;;;;;5025065;28;20029;-57
2023/12/18 11:38:14;;;;;;;19.30;8.40;;;3.40;99.90;;;;;;5029070;28;20022;-58
2023/12/18 11:40:49;;;;;;;19.95;8.43;;;3.30;99.90;;;;;;5024575;28;20078;-58
2023/12/18 11:43:38;;;;;;;16.83;7.47;;;3.40;99.90;;;;;;5027179;28;20040;-58
2023/12/18 11:46:13;;;;;;;13.77;7.75;;;3.30;99.90;;;;;;5026629;28;20394;-58
2023/12/18 11:48:41;;;;;;;15.35;7.82;;;3.40;99.90;;;;;;5023907;28;20124;-58
2023/12/18 11:51:06;;;;;;;17.42;8.73;;;3.40;99.90;;;;;;5027033;28;20033;-58
2023/12/18 11:53:34;;;;;;;16.25;8.95;;;3.40;99.90;;;;;;5028292;28;20037;-58
2023/12/18 11:56:11;;;;;;;16.58;8.85;;;3.40;99.90;;;;;;5021200;28;20025;-59
2023/12/18 11:58:41;;;;;;;17.67;9.35;;;3.40;99.90;;;;;;5026522;28;20148;-58
2023/12/18 12:01:07;;;;;;;17.88;8.25;;;3.50;99.90;;;;;;5026188;28;20033;-57
2023/12/18 12:03:33;;;;;;;19.65;10.13;;;3.40;99.90;;;;;;5004990;28;20061;-58
2023/12/18 12:06:02;;;;;;;19.55;9.48;;;3.40;99.90;;;;;;5008274;28;20079;-59
2023/12/18 12:08:27;;;;;;;21.02;9.43;;;3.40;99.90;;;;;;5005453;28;20567;-59
2023/12/18 12:10:56;;;;;;;22.55;10.55;;;3.50;99.90;;;;;;5006762;28;20037;-58
2023/12/18 12:13:23;;;;;;;20.02;10.15;;;3.50;99.90;;;;;;5004582;28;20088;-58
2023/12/18 12:15:59;;;;;;;21.17;9.95;;;3.50;99.90;;;;;;5003457;28;20078;-58
2023/12/18 12:18:43;;;;;;;16.90;9.73;;;3.50;99.90;;;;;;5006467;28;20036;-58
2023/12/18 12:21:12;;;;;;;28.58;10.93;;;3.50;99.90;;;;;;5006928;28;20073;-60
2023/12/18 12:23:37;;;;;;;26.80;9.55;;;3.50;99.90;;;;;;5008121;28;20030;-60
2023/12/18 12:26:04;;;;;;;22.00;10.65;;;3.50;99.90;;;;;;5006992;28;20180;-59
2023/12/18 12:28:30;;;;;;;23.25;10.52;;;3.60;99.90;;;;;;5007848;28;20424;-60
2023/12/18 12:30:59;;;;;;;19.98;11.15;;;3.60;99.90;;;;;;5006162;28;20022;-57
2023/12/18 12:33:37;;;;;;;18.08;9.90;;;3.60;99.90;;;;;;5010232;28;20503;-57
2023/12/18 12:36:03;;;;;;;16.75;9.25;;;3.60;99.90;;;;;;5008051;28;20022;-57
2023/12/18 12:38:29;;;;;;;17.00;10.07;;;3.60;99.90;;;;;;5009825;28;20546;-59